Time;durP1;ratioP1;P1;durP2;ratioP2;P2;SDS_P1;SDS_P2;PMS_P1;PMS_P2;Temp;Humidity;BMP_temperature;BMP_pressure;BME280_temperature;BME280_humidity;BME280_pressure;Samples;Min_cycle;Max_cycle;Signal;HPM_P1;HPM_P2
2021/06/26 00:01:11;;;;;;;4.1;2.3;;;;;;;;;;;;;
2021/06/26 00:03:35;;;;;;;2.8;2.5;;;;;;;;;;;;;
2021/06/26 00:06:00;;;;;;;4.1;2.1;;;;;;;;;;;;;
2021/06/26 00:08:26;;;;;;;2.4;2.1;;;;;;;;;;;;;
2021/06/26 00:10:51;;;;;;;2.5;2.3;;;;;;;;;;;;;
2021/06/26 00:13:18;;;;;;;3.5;2.3;;;;;;;;;;;;;
2021/06/26 00:15:43;;;;;;;3.8;2.5;;;;;;;;;;;;;
2021/06/26 00:18:10;;;;;;;4.4;2.3;;;;;;;;;;;;;
2021/06/26 00:20:35;;;;;;;2.8;2.4;;;;;;;;;;;;;
2021/06/26 00:23:00;;;;;;;3.6;2.4;;;;;;;;;;;;;
2021/06/26 00:25:25;;;;;;;2.4;2.2;;;;;;;;;;;;;
2021/06/26 00:27:51;;;;;;;3.2;2.3;;;;;;;;;;;;;
2021/06/26 00:30:16;;;;;;;3.1;2.2;;;;;;;;;;;;;
2021/06/26 00:32:42;;;;;;;3;2;;;;;;;;;;;;;
2021/06/26 00:35:06;;;;;;;2.8;2.1;;;;;;;;;;;;;
2021/06/26 00:37:33;;;;;;;3.4;2.1;;;;;;;;;;;;;
2021/06/26 00:39:58;;;;;;;2.5;2.2;;;;;;;;;;;;;
2021/06/26 00:42:24;;;;;;;3.4;2.1;;;;;;;;;;;;;
2021/06/26 00:44:49;;;;;;;2.2;2;;;;;;;;;;;;;
2021/06/26 00:47:16;;;;;;;3.3;2;;;;;;;;;;;;;
2021/06/26 00:49:41;;;;;;;2.3;2;;;;;;;;;;;;;
2021/06/26 00:52:08;;;;;;;2.3;2.1;;;;;;;;;;;;;
2021/06/26 00:54:33;;;;;;;2.5;2.1;;;;;;;;;;;;;
2021/06/26 00:56:58;;;;;;;2.5;2.3;;;;;;;;;;;;;
2021/06/26 00:59:23;;;;;;;2.8;2.3;;;;;;;;;;;;;
2021/06/26 01:01:48;;;;;;;2.1;1.8;;;;;;;;;;;;;
2021/06/26 01:04:13;;;;;;;3.4;1.9;;;;;;;;;;;;;
2021/06/26 01:06:38;;;;;;;4.6;2.1;;;;;;;;;;;;;
2021/06/26 01:09:03;;;;;;;4.4;2;;;;;;;;;;;;;
2021/06/26 01:11:28;;;;;;;3.4;2.5;;;;;;;;;;;;;
2021/06/26 01:13:54;;;;;;;4.2;2.1;;;;;;;;;;;;;
2021/06/26 01:16:19;;;;;;;2.7;2.3;;;;;;;;;;;;;
2021/06/26 01:18:44;;;;;;;3.7;2.3;;;;;;;;;;;;;
2021/06/26 01:21:09;;;;;;;4.2;2.3;;;;;;;;;;;;;
2021/06/26 01:23:36;;;;;;;4.3;2.5;;;;;;;;;;;;;
2021/06/26 01:26:01;;;;;;;3.8;2.6;;;;;;;;;;;;;
2021/06/26 01:28:28;;;;;;;3.8;2.6;;;;;;;;;;;;;
2021/06/26 01:30:53;;;;;;;5.4;3;;;;;;;;;;;;;
2021/06/26 01:33:18;;;;;;;3.9;2.9;;;;;;;;;;;;;
2021/06/26 01:35:44;;;;;;;4.3;2.6;;;;;;;;;;;;;
2021/06/26 01:38:09;;;;;;;4.9;2.6;;;;;;;;;;;;;
2021/06/26 01:40:34;;;;;;;4.8;2.8;;;;;;;;;;;;;
2021/06/26 01:43:00;;;;;;;4.2;2.8;;;;;;;;;;;;;
2021/06/26 01:45:25;;;;;;;3.8;3.1;;;;;;;;;;;;;
2021/06/26 01:47:52;;;;;;;4.4;2.8;;;;;;;;;;;;;
2021/06/26 01:50:17;;;;;;;4.4;2.9;;;;;;;;;;;;;
2021/06/26 01:52:43;;;;;;;5.3;2.7;;;;;;;;;;;;;
2021/06/26 01:55:07;;;;;;;4.1;3;;;;;;;;;;;;;
2021/06/26 01:57:36;;;;;;;4.2;2.7;;;;;;;;;;;;;
2021/06/26 02:00:01;;;;;;;5;2.8;;;;;;;;;;;;;
2021/06/26 02:02:27;;;;;;;6.6;2.6;;;;;;;;;;;;;
2021/06/26 02:04:52;;;;;;;2.8;2.4;;;;;;;;;;;;;
2021/06/26 02:07:17;;;;;;;4.4;2.6;;;;;;;;;;;;;
2021/06/26 02:09:42;;;;;;;3.7;3.1;;;;;;;;;;;;;
2021/06/26 02:12:08;;;;;;;3.7;2.5;;;;;;;;;;;;;
2021/06/26 02:14:33;;;;;;;3.5;2.6;;;;;;;;;;;;;
2021/06/26 02:17:01;;;;;;;4.2;2.9;;;;;;;;;;;;;
2021/06/26 02:19:26;;;;;;;3.9;2.5;;;;;;;;;;;;;
2021/06/26 02:21:52;;;;;;;4.8;2.9;;;;;;;;;;;;;
2021/06/26 02:24:17;;;;;;;3.4;2.3;;;;;;;;;;;;;
2021/06/26 02:26:42;;;;;;;4.6;2.5;;;;;;;;;;;;;
2021/06/26 02:29:07;;;;;;;2.9;2.3;;;;;;;;;;;;;
2021/06/26 02:31:33;;;;;;;4;2.6;;;;;;;;;;;;;
2021/06/26 02:33:58;;;;;;;5.4;2.5;;;;;;;;;;;;;
2021/06/26 02:36:24;;;;;;;4;2.5;;;;;;;;;;;;;
2021/06/26 02:38:49;;;;;;;3.9;2.7;;;;;;;;;;;;;
2021/06/26 02:41:21;;;;;;;7.1;2.9;;;;;;;;;;;;;
2021/06/26 02:43:43;;;;;;;4;2.5;;;;;;;;;;;;;
2021/06/26 02:46:08;;;;;;;4.8;2.7;;;;;;;;;;;;;
2021/06/26 02:48:33;;;;;;;3.8;2.7;;;;;;;;;;;;;
2021/06/26 02:50:59;;;;;;;4;2.7;;;;;;;;;;;;;
2021/06/26 02:53:24;;;;;;;3.9;2.6;;;;;;;;;;;;;
2021/06/26 02:55:55;;;;;;;4.4;2.5;;;;;;;;;;;;;
2021/06/26 02:58:14;;;;;;;6.1;2.5;;;;;;;;;;;;;
2021/06/26 03:00:40;;;;;;;3.9;2.3;;;;;;;;;;;;;
2021/06/26 03:03:05;;;;;;;2.8;2.4;;;;;;;;;;;;;
2021/06/26 03:05:31;;;;;;;3.1;2.6;;;;;;;;;;;;;
2021/06/26 03:07:56;;;;;;;4.3;3;;;;;;;;;;;;;
2021/06/26 03:10:23;;;;;;;3.7;2.9;;;;;;;;;;;;;
2021/06/26 03:12:48;;;;;;;3.5;2.4;;;;;;;;;;;;;
2021/06/26 03:15:14;;;;;;;4.5;3;;;;;;;;;;;;;
2021/06/26 03:17:39;;;;;;;3.5;2.2;;;;;;;;;;;;;
2021/06/26 03:20:04;;;;;;;2.5;2.2;;;;;;;;;;;;;
2021/06/26 03:22:29;;;;;;;5.8;2.7;;;;;;;;;;;;;
2021/06/26 03:24:56;;;;;;;2.8;2.3;;;;;;;;;;;;;
2021/06/26 03:27:21;;;;;;;2.9;2.1;;;;;;;;;;;;;
2021/06/26 03:29:51;;;;;;;3.1;2.3;;;;;;;;;;;;;
2021/06/26 03:32:16;;;;;;;2.4;2.2;;;;;;;;;;;;;
2021/06/26 03:34:41;;;;;;;3.6;2.3;;;;;;;;;;;;;
2021/06/26 03:37:06;;;;;;;2.2;2;;;;;;;;;;;;;
2021/06/26 03:39:32;;;;;;;3.2;2.5;;;;;;;;;;;;;
2021/06/26 03:41:57;;;;;;;2.6;2.4;;;;;;;;;;;;;
2021/06/26 03:44:23;;;;;;;5.7;2.4;;;;;;;;;;;;;
2021/06/26 03:46:48;;;;;;;2.1;1.9;;;;;;;;;;;;;
2021/06/26 03:49:14;;;;;;;1.9;1.8;;;;;;;;;;;;;
2021/06/26 03:51:40;;;;;;;2.8;2;;;;;;;;;;;;;
2021/06/26 03:54:04;;;;;;;1.9;1.7;;;;;;;;;;;;;
2021/06/26 03:56:29;;;;;;;3.3;2.2;;;;;;;;;;;;;
2021/06/26 03:58:54;;;;;;;2.6;2;;;;;;;;;;;;;
2021/06/26 04:02:32;;;;;;;4.2;2;;;;;;;15.02;88.79297;940.4867;;;;
2021/06/26 04:04:58;;;;;;;3.8;2.2;;;;;;;14.97;89.6582;940.4185;;;;
2021/06/26 04:07:24;;;;;;;2.9;2.3;;;;;;;15.08;89.54395;940.4543;;;;
2021/06/26 04:09:49;;;;;;;3.2;2.5;;;;;;;15.06;88.57129;940.5242;;;;
2021/06/26 04:12:14;;;;;;;2.7;2.1;;;;;;;15.2;88.45898;940.5894;;;;
2021/06/26 04:14:44;;;;;;;2.2;2;;;;;;;15.16;87.70313;940.5856;;;;
2021/06/26 04:17:13;;;;;;;3.2;2.2;;;;;;;15.15;87.89551;940.592;;;;
2021/06/26 04:19:38;;;;;;;2.3;2.1;;;;;;;15.18;87.85449;940.5831;;;;
2021/06/26 04:22:03;;;;;;;3.4;2;;;;;;;15.12;87.72852;940.5449;;;;
2021/06/26 04:24:32;;;;;;;3.9;2.3;;;;;;;15.14;87.83594;940.5632;;;;
2021/06/26 04:26:59;;;;;;;3.4;2.2;;;;;;;15.01;87.86816;940.5153;;;;
2021/06/26 04:29:30;;;;;;;2.6;2.2;;;;;;;14.82;88.92578;940.5048;;;;
2021/06/26 04:31:55;;;;;;;2.9;2.1;;;;;;;14.83;89.2832;940.4855;;;;
2021/06/26 04:34:24;;;;;;;2.4;2.2;;;;;;;14.84;89.20605;940.5625;;;;
2021/06/26 04:36:49;;;;;;;3.2;2.1;;;;;;;14.72;89.75879;940.5705;;;;
2021/06/26 04:39:20;;;;;;;3.3;2.3;;;;;;;14.65;89.8125;940.6213;;;;
2021/06/26 04:41:51;;;;;;;2.8;2;;;;;;;14.73;89.66797;940.5906;;;;
2021/06/26 04:44:19;;;;;;;3.8;2.3;;;;;;;14.87;88.70605;940.592;;;;
2021/06/26 04:46:44;;;;;;;3.3;2.2;;;;;;;14.89;88.56934;940.6264;;;;
2021/06/26 04:49:13;;;;;;;3.9;2.4;;;;;;;15.01;88.12207;940.5691;;;;
2021/06/26 04:51:38;;;;;;;3.2;2.3;;;;;;;15.1;87.51563;940.5642;;;;
2021/06/26 04:54:06;;;;;;;2.3;2.1;;;;;;;15.04;87.40039;940.6174;;;;
2021/06/26 04:56:31;;;;;;;2.3;2.1;;;;;;;15.06;87.66016;940.5595;;;;
2021/06/26 04:58:56;;;;;;;2.5;2.3;;;;;;;15.08;87.39648;940.5363;;;;
2021/06/26 05:01:21;;;;;;;2.3;2.1;;;;;;;15.04;87.49316;940.562;;;;
2021/06/26 05:05:03;;;;;;;2.9;2.4;;;;;;;15.24;88.47949;940.551;;;;
2021/06/26 05:07:25;;;;;;;2.4;1.7;;;;;;;17.29;80.71777;940.4553;;;;
2021/06/26 05:09:53;;;;;;;1.7;1.6;;;;;;;17.97;75.08496;940.4024;;;;
2021/06/26 05:12:18;;;;;;;3.2;1.6;;;;;;;19.03;70.73438;940.4464;;;;
2021/06/26 05:14:46;;;;;;;1.7;1.5;;;;;;;19.38;70.37305;940.4249;;;;
2021/06/26 05:17:12;;;;;;;1.9;1.4;;;;;;;20.22;68.21777;940.3508;;;;
2021/06/26 05:19:40;;;;;;;1.8;1.5;;;;;;;19.82;66.08203;940.3976;;;;
2021/06/26 05:22:06;;;;;;;2.6;1.4;;;;;;;20.21;65.19434;940.322;;;;
2021/06/26 05:24:33;;;;;;;1.3;1.2;;;;;;;21.26;60.87891;940.2327;;;;
2021/06/26 05:27:03;;;;;;;4.4;1.6;;;;;;;20.75;61.7666;940.3143;;;;
2021/06/26 05:29:28;;;;;;;1.4;1.3;;;;;;;22.41;57.74023;940.2499;;;;
2021/06/26 05:31:57;;;;;;;1.3;1.2;;;;;;;22.83;56.01074;940.2433;;;;
2021/06/26 05:34:22;;;;;;;2.2;1.2;;;;;;;22.72;55.53906;940.2531;;;;
2021/06/26 05:36:47;;;;;;;1.4;1.3;;;;;;;22.06;58.03516;940.2503;;;;
2021/06/26 05:39:12;;;;;;;3.2;1.5;;;;;;;22.88;55.00586;940.2531;;;;
2021/06/26 05:41:40;;;;;;;1.5;1.2;;;;;;;22.44;55.81934;940.2209;;;;
2021/06/26 05:44:05;;;;;;;2.7;1.4;;;;;;;23.58;53.66895;940.2817;;;;
2021/06/26 05:46:31;;;;;;;2;1.8;;;;;;;24.01;53.89746;940.2647;;;;
2021/06/26 05:48:56;;;;;;;1.6;1.5;;;;;;;23.33;52.26465;940.2592;;;;
2021/06/26 05:51:24;;;;;;;1.4;1.1;;;;;;;22.42;55.31348;940.2026;;;;
2021/06/26 05:53:49;;;;;;;1.5;1.4;;;;;;;23.08;52.95117;940.17;;;;
2021/06/26 05:56:17;;;;;;;1.5;1.4;;;;;;;23.26;52.69141;940.2017;;;;
2021/06/26 05:58:42;;;;;;;3.4;1.4;;;;;;;22.65;55.7998;940.1409;;;;
2021/06/26 06:01:11;;;;;;;1.4;1.3;;;;;;;22.88;53.66797;940.1052;;;;
2021/06/26 06:03:34;;;;;;;1.4;1.3;;;;;;;22.97;53.0791;940.0249;;;;
2021/06/26 06:06:02;;;;;;;1.6;1.2;;;;;;;24.07;50.93945;940.0673;;;;
2021/06/26 06:08:31;;;;;;;0.9;0.9;;;;;;;25.09;48.4707;939.9867;;;;
2021/06/26 06:10:56;;;;;;;1.2;1.1;;;;;;;24.82;48.77148;939.9682;;;;
2021/06/26 06:13:25;;;;;;;2.6;1.2;;;;;;;25.14;47.29492;940.0042;;;;
2021/06/26 06:15:57;;;;;;;1.3;1.2;;;;;;;24.17;48.98242;939.9926;;;;
2021/06/26 06:18:24;;;;;;;1.4;1.3;;;;;;;25.86;48.50586;939.9534;;;;
2021/06/26 06:20:54;;;;;;;1.2;1.1;;;;;;;27.6;44.71875;939.9277;;;;
2021/06/26 06:23:24;;;;;;;1.6;1.5;;;;;;;28.33;40.60742;939.8521;;;;
2021/06/26 06:25:49;;;;;;;1.3;1.2;;;;;;;26.97;43.54199;939.8636;;;;
2021/06/26 06:28:19;;;;;;;1.4;1.2;;;;;;;24.24;48.56641;939.8786;;;;
2021/06/26 06:30:49;;;;;;;1.3;1.2;;;;;;;25.39;47.21484;939.7994;;;;
2021/06/26 06:36:54;;;;;;;1.3;1.2;;;;;;;26.96;43.13867;939.8403;;;;
2021/06/26 06:39:19;;;;;;;1.1;1.1;;;;;;;27.8;42.98145;939.7852;;;;
2021/06/26 06:41:44;;;;;;;1.1;1.1;;;;;;;28.58;39.44043;939.7849;;;;
2021/06/26 06:44:12;;;;;;;1.2;1.1;;;;;;;27.7;40.64551;939.7938;;;;
2021/06/26 06:46:37;;;;;;;1.1;1.1;;;;;;;29.25;37.41504;939.7375;;;;
2021/06/26 06:49:02;;;;;;;1.1;1.1;;;;;;;29.14;39.40625;939.7313;;;;
2021/06/26 06:51:28;;;;;;;1.9;1.1;;;;;;;29.26;40.44141;939.7424;;;;
2021/06/26 06:53:53;;;;;;;1.4;1;;;;;;;28.13;45.8418;939.7473;;;;
2021/06/26 06:56:19;;;;;;;1;1;;;;;;;28.12;44.41504;939.6978;;;;
2021/06/26 06:58:44;;;;;;;1.1;1;;;;;;;29.22;41.46191;939.6387;;;;
2021/06/26 07:01:09;;;;;;;1.7;1.1;;;;;;;30.02;39.55469;939.6495;;;;
2021/06/26 07:03:34;;;;;;;5.2;1;;;;;;;29.1;41.14063;939.6339;;;;
2021/06/26 07:06:00;;;;;;;0.8;0.8;;;;;;;29.37;40.68945;939.6152;;;;
2021/06/26 07:08:25;;;;;;;1.1;1;;;;;;;28.95;41.55566;939.6287;;;;
2021/06/26 07:10:55;;;;;;;1.2;1.1;;;;;;;29.81;39.40527;939.5792;;;;
2021/06/26 07:13:22;;;;;;;1;0.9;;;;;;;30.15;37.62012;939.5313;;;;
2021/06/26 07:15:58;;;;;;;1.2;1.1;;;;;;;31.89;34.7334;939.587;;;;
2021/06/26 07:18:23;;;;;;;1.2;1.1;;;;;;;32.24;35.27637;939.5748;;;;
2021/06/26 07:20:52;;;;;;;1.9;1.1;;;;;;;31.91;33.78906;939.5417;;;;
2021/06/26 07:23:21;;;;;;;1.2;1;;;;;;;32.12;33.86426;939.4736;;;;
2021/06/26 07:25:46;;;;;;;1.2;1.1;;;;;;;32.39;32.64844;939.4204;;;;
2021/06/26 07:28:13;;;;;;;0.9;0.9;;;;;;;32.36;33.16309;939.4099;;;;
2021/06/26 07:30:38;;;;;;;1.3;1.2;;;;;;;32.97;33.84375;939.4;;;;
2021/06/26 07:33:05;;;;;;;1;1;;;;;;;31.17;37.2627;939.4175;;;;
2021/06/26 07:35:30;;;;;;;1;1;;;;;;;30.68;39.49316;939.3334;;;;
2021/06/26 07:37:56;;;;;;;1.7;1.2;;;;;;;31.17;37.29883;939.343;;;;
2021/06/26 07:40:22;;;;;;;1.1;1;;;;;;;30.85;38.47949;939.3237;;;;
2021/06/26 07:42:51;;;;;;;1;1;;;;;;;32.74;34.45117;939.37;;;;
2021/06/26 07:45:16;;;;;;;1.2;1;;;;;;;30.48;40.66992;939.3011;;;;
2021/06/26 07:47:43;;;;;;;1.1;1.1;;;;;;;29.29;42.4209;939.3395;;;;
2021/06/26 07:50:08;;;;;;;1.1;1;;;;;;;30.56;37.88184;939.2658;;;;
2021/06/26 07:52:34;;;;;;;0.9;0.9;;;;;;;29.43;42.54199;939.2297;;;;
2021/06/26 07:54:59;;;;;;;3.4;1;;;;;;;29.41;42.43164;939.1876;;;;
2021/06/26 07:57:25;;;;;;;2.5;0.9;;;;;;;29.4;41.88281;939.1925;;;;
2021/06/26 07:59:50;;;;;;;1;1;;;;;;;31.7;34.16797;939.2033;;;;
2021/06/26 08:02:16;;;;;;;1.5;0.9;;;;;;;30.68;36.91211;939.1611;;;;
2021/06/26 08:04:41;;;;;;;1.6;0.9;;;;;;;30.27;37.94141;939.1209;;;;
2021/06/26 08:07:10;;;;;;;3.6;1.1;;;;;;;31.23;36.9209;939.1736;;;;
2021/06/26 08:09:35;;;;;;;1.6;0.8;;;;;;;31.07;37.29004;939.1438;;;;
2021/06/26 08:12:03;;;;;;;0.9;0.9;;;;;;;30.96;37.05371;939.1465;;;;
2021/06/26 08:14:28;;;;;;;0.8;0.8;;;;;;;30.53;36.13477;939.0722;;;;
2021/06/26 08:16:55;;;;;;;0.8;0.8;;;;;;;31.02;37.39453;939.1348;;;;
2021/06/26 08:19:22;;;;;;;1.3;0.8;;;;;;;28.92;38.75684;939.1505;;;;
2021/06/26 08:21:47;;;;;;;1.3;0.9;;;;;;;30.2;39.72559;939.1142;;;;
2021/06/26 08:24:12;;;;;;;1.2;1.1;;;;;;;29.6;41.22266;939.072;;;;
2021/06/26 08:26:37;;;;;;;1.5;1.1;;;;;;;29.61;40.33008;939.0736;;;;
2021/06/26 08:29:05;;;;;;;4.6;1.6;;;;;;;30.51;39.17871;939.0284;;;;
2021/06/26 08:31:30;;;;;;;3.8;2.2;;;;;;;32.8;34.49121;939.0779;;;;
2021/06/26 08:33:56;;;;;;;0.9;0.9;;;;;;;33.57;34.29688;939.051;;;;
2021/06/26 08:36:22;;;;;;;1;1;;;;;;;32.55;35.94824;939.0505;;;;
2021/06/26 08:38:48;;;;;;;1.5;1;;;;;;;33.06;35.03906;938.992;;;;
2021/06/26 08:41:13;;;;;;;0.8;0.8;;;;;;;33.23;33.68262;939.0098;;;;
2021/06/26 08:43:38;;;;;;;1;0.9;;;;;;;34.01;33.1748;938.9519;;;;
2021/06/26 08:46:06;;;;;;;0.8;0.8;;;;;;;32.25;37.93945;938.9294;;;;
2021/06/26 08:48:31;;;;;;;0.8;0.8;;;;;;;31.33;37.58789;938.9924;;;;
2021/06/26 08:50:58;;;;;;;2;1.2;;;;;;;31.06;38.58203;938.9731;;;;
2021/06/26 08:53:23;;;;;;;2.4;1.1;;;;;;;30.97;37.99902;938.99;;;;
2021/06/26 08:55:52;;;;;;;1.3;1.1;;;;;;;32.36;34.43359;938.9944;;;;
2021/06/26 08:58:14;;;;;;;1;1;;;;;;;31.74;33.48828;938.9503;;;;
2021/06/26 09:00:43;;;;;;;1;1;;;;;;;30.11;38.44043;938.978;;;;
2021/06/26 09:03:08;;;;;;;0.8;0.8;;;;;;;27.31;45.54395;938.9902;;;;
2021/06/26 09:05:37;;;;;;;1.2;0.9;;;;;;;27.63;45.96875;938.9955;;;;
2021/06/26 09:08:02;;;;;;;1.3;1.2;;;;;;;28.21;44.68457;938.9559;;;;
2021/06/26 09:10:27;;;;;;;1;0.7;;;;;;;29.34;41.4375;938.8759;;;;
2021/06/26 09:12:52;;;;;;;1;1;;;;;;;29.67;43.32813;938.8845;;;;
2021/06/26 09:15:26;;;;;;;1.4;1.1;;;;;;;30.09;40.58691;938.8508;;;;
2021/06/26 09:17:54;;;;;;;1.6;1.1;;;;;;;29.05;45.06641;938.8596;;;;
2021/06/26 09:20:20;;;;;;;3.7;1.2;;;;;;;28.98;45.76172;938.8797;;;;
2021/06/26 09:22:49;;;;;;;1.3;1.2;;;;;;;28.76;44.53613;938.8747;;;;
2021/06/26 09:25:14;;;;;;;1.4;1.1;;;;;;;28.15;45.68945;938.8886;;;;
2021/06/26 09:27:39;;;;;;;3.4;1.3;;;;;;;28.58;45.89941;938.8513;;;;
2021/06/26 09:30:09;;;;;;;2.1;1.2;;;;;;;27.86;44.82813;938.8035;;;;
2021/06/26 09:32:34;;;;;;;0.9;0.9;;;;;;;28.51;43.82227;938.7949;;;;
2021/06/26 09:35:00;;;;;;;5.1;3;;;;;;;26.67;51.29492;938.8639;;;;
2021/06/26 09:37:25;;;;;;;20.2;10;;;;;;;27.29;51.36621;938.8114;;;;
2021/06/26 09:39:52;;;;;;;20.1;10.8;;;;;;;28.19;48.35449;938.7939;;;;
2021/06/26 09:42:17;;;;;;;24.3;14.3;;;;;;;28.22;48.34668;938.6873;;;;
2021/06/26 09:44:42;;;;;;;13.5;7.9;;;;;;;27.55;48.20215;938.8242;;;;
2021/06/26 09:47:07;;;;;;;4.5;2.3;;;;;;;28.56;46.62305;938.7706;;;;
2021/06/26 09:49:33;;;;;;;5;2;;;;;;;27.95;46.70215;938.7756;;;;
2021/06/26 09:51:59;;;;;;;1.6;1.1;;;;;;;28.25;47.33984;938.7385;;;;
2021/06/26 09:54:26;;;;;;;1.8;1.3;;;;;;;26.43;53.88281;938.6764;;;;
2021/06/26 09:56:51;;;;;;;2.3;1.5;;;;;;;27.89;48.14453;938.6917;;;;
2021/06/26 09:59:18;;;;;;;1.2;1.2;;;;;;;27.44;50.76563;938.6106;;;;
2021/06/26 10:01:45;;;;;;;2;1.4;;;;;;;27.42;49.7666;938.5951;;;;
2021/06/26 10:04:09;;;;;;;1.9;1.3;;;;;;;27.87;46.51563;938.5723;;;;
2021/06/26 10:06:34;;;;;;;1.3;1.2;;;;;;;26.8;51.34473;938.553;;;;
2021/06/26 10:08:59;;;;;;;1.6;1.5;;;;;;;26.29;53.47559;938.5175;;;;
2021/06/26 10:11:24;;;;;;;1.4;1.3;;;;;;;26.6;51.28613;938.5536;;;;
2021/06/26 10:13:51;;;;;;;1.2;1.1;;;;;;;25.55;55.57324;938.449;;;;
2021/06/26 10:16:24;;;;;;;1.4;1.2;;;;;;;25.87;55.22266;938.45;;;;
2021/06/26 10:18:50;;;;;;;1.1;1.1;;;;;;;25.51;54.12695;938.4191;;;;
2021/06/26 10:21:15;;;;;;;1.2;1.2;;;;;;;25.96;55.22168;938.4242;;;;
2021/06/26 10:23:40;;;;;;;1.3;1.2;;;;;;;26.39;53.08496;938.3917;;;;
2021/06/26 10:26:05;;;;;;;2.1;1.2;;;;;;;26.31;53.39551;938.3848;;;;
2021/06/26 10:28:30;;;;;;;2.2;1.4;;;;;;;25.4;57.33887;938.3115;;;;
2021/06/26 10:30:56;;;;;;;1.6;1.4;;;;;;;25.54;56.77539;938.3511;;;;
2021/06/26 10:33:21;;;;;;;1.5;1.3;;;;;;;25.4;56.80664;938.3764;;;;
2021/06/26 10:35:48;;;;;;;1.7;1.1;;;;;;;25.52;55.8877;938.3463;;;;
2021/06/26 10:38:14;;;;;;;3.3;1.3;;;;;;;25.4;55.27051;938.3003;;;;
2021/06/26 10:40:39;;;;;;;2.5;1.5;;;;;;;25.32;57.61035;938.282;;;;
2021/06/26 10:43:05;;;;;;;3.3;1.5;;;;;;;25.73;55.99707;938.3152;;;;
2021/06/26 10:45:30;;;;;;;2.9;1.5;;;;;;;25.48;55.56543;938.3153;;;;
2021/06/26 10:47:56;;;;;;;1.5;1.4;;;;;;;25.66;57.05176;938.2181;;;;
2021/06/26 10:50:21;;;;;;;3;1.4;;;;;;;25.77;54.99707;938.2316;;;;
2021/06/26 10:52:48;;;;;;;3.7;1.5;;;;;;;25.78;54.54883;938.1814;;;;
2021/06/26 10:55:13;;;;;;;1.2;1.1;;;;;;;24.98;58.44043;938.1887;;;;
2021/06/26 10:57:38;;;;;;;2.7;1.5;;;;;;;24.93;59.9082;938.2155;;;;
2021/06/26 11:00:03;;;;;;;3.4;1.6;;;;;;;24.76;61.10059;938.1636;;;;
2021/06/26 11:02:30;;;;;;;3.3;1.5;;;;;;;24.82;59.49219;938.1984;;;;
2021/06/26 11:04:55;;;;;;;1.9;1.4;;;;;;;24.88;57.80176;938.1589;;;;
2021/06/26 11:07:24;;;;;;;1.4;1.3;;;;;;;25.03;57.56152;938.1292;;;;
2021/06/26 11:09:49;;;;;;;1.8;1.5;;;;;;;25.17;59.50488;938.1069;;;;
2021/06/26 11:12:16;;;;;;;2;1.5;;;;;;;25.28;56.02344;938.0832;;;;
2021/06/26 11:14:41;;;;;;;1.8;1.6;;;;;;;25.5;55.04688;938.0471;;;;
2021/06/26 11:17:06;;;;;;;2;1.6;;;;;;;25.44;57.21191;938.1023;;;;
2021/06/26 11:19:32;;;;;;;1.9;1.7;;;;;;;24.96;59.65332;937.9631;;;;
2021/06/26 11:21:58;;;;;;;1.6;1.4;;;;;;;25.23;57.49316;938.0106;;;;
2021/06/26 11:24:25;;;;;;;2.5;1.3;;;;;;;25.28;57.65332;938.0392;;;;
2021/06/26 11:26:50;;;;;;;2;1.6;;;;;;;25.35;57.36719;937.9985;;;;
2021/06/26 11:29:16;;;;;;;1.9;1.6;;;;;;;25.09;60.38965;938.0083;;;;
2021/06/26 11:31:41;;;;;;;1.4;1.3;;;;;;;25.46;55.19531;937.9105;;;;
2021/06/26 11:34:08;;;;;;;2.5;1.5;;;;;;;25.01;58.78613;937.9352;;;;
2021/06/26 11:36:37;;;;;;;1.4;1.3;;;;;;;25.54;56.3623;937.8895;;;;
2021/06/26 11:39:02;;;;;;;1.5;1.4;;;;;;;25.38;58.20898;937.8953;;;;
2021/06/26 11:41:27;;;;;;;2.2;1.3;;;;;;;25.43;55.61719;937.8246;;;;
2021/06/26 11:43:52;;;;;;;1.7;1.6;;;;;;;25.47;58.6582;937.8635;;;;
2021/06/26 11:46:18;;;;;;;1.3;1.2;;;;;;;25.31;58.9668;937.8759;;;;
2021/06/26 11:48:43;;;;;;;1.8;1.7;;;;;;;24.85;60.59277;937.8787;;;;
2021/06/26 11:51:12;;;;;;;1.4;1.3;;;;;;;25.33;54.83789;937.9288;;;;
2021/06/26 11:53:35;;;;;;;2;1.4;;;;;;;25.43;55.13379;937.9192;;;;
2021/06/26 11:56:02;;;;;;;1.6;1.3;;;;;;;25.14;55.19238;937.8931;;;;
2021/06/26 11:58:26;;;;;;;1.7;1.6;;;;;;;24.95;59.62891;937.9286;;;;
2021/06/26 12:00:52;;;;;;;1.8;1.4;;;;;;;25.29;56.99316;937.9069;;;;
2021/06/26 12:03:18;;;;;;;1.4;1.3;;;;;;;25.26;56.56348;937.9126;;;;
2021/06/26 12:05:43;;;;;;;1.4;1.3;;;;;;;25.29;57.73633;937.902;;;;
2021/06/26 12:08:08;;;;;;;1.5;1.4;;;;;;;25.47;54.45313;937.8161;;;;
2021/06/26 12:10:35;;;;;;;1.8;1.4;;;;;;;25.23;54.02246;937.8723;;;;
2021/06/26 12:13:04;;;;;;;1.4;1.3;;;;;;;25.52;54.23438;937.8283;;;;
2021/06/26 12:15:41;;;;;;;2.4;1.5;;;;;;;24.95;58.97949;937.7722;;;;
2021/06/26 12:18:09;;;;;;;1.5;1.4;;;;;;;25.02;57.78418;937.7798;;;;
2021/06/26 12:24:40;;;;;;;1.5;1.4;;;;;;;25.14;58.92188;937.8142;;;;
2021/06/26 12:27:08;;;;;;;5.3;2;;;;;;;25.65;55.95215;937.8172;;;;
2021/06/26 12:29:33;;;;;;;1.6;1.3;;;;;;;25.9;53.86621;937.8528;;;;
2021/06/26 12:31:58;;;;;;;1.6;1.5;;;;;;;25.96;55.35156;937.8937;;;;
2021/06/26 12:34:26;;;;;;;1.5;1.4;;;;;;;25.83;55.18262;937.7932;;;;
2021/06/26 12:36:52;;;;;;;3.4;1.8;;;;;;;25.72;54.84863;937.7792;;;;
2021/06/26 12:39:17;;;;;;;6.1;3;;;;;;;25.99;53.8291;937.8164;;;;
2021/06/26 12:41:44;;;;;;;5.2;3.2;;;;;;;25.56;58.20898;937.7972;;;;
2021/06/26 12:44:09;;;;;;;7.2;4.1;;;;;;;25.5;56.4873;937.7806;;;;
2021/06/26 12:46:36;;;;;;;3.3;1.8;;;;;;;25.78;54.07715;937.7961;;;;
2021/06/26 12:49:03;;;;;;;10.6;4.4;;;;;;;25.74;54.91113;937.7553;;;;
2021/06/26 12:51:26;;;;;;;11.1;3.6;;;;;;;25.46;56.55371;937.7784;;;;
2021/06/26 12:53:51;;;;;;;1.5;1.4;;;;;;;25.6;53.46387;937.7397;;;;
2021/06/26 12:56:16;;;;;;;4.4;1.9;;;;;;;25.45;54.34375;937.65;;;;
2021/06/26 12:58:42;;;;;;;1.7;1.6;;;;;;;25.55;51.5918;937.755;;;;
2021/06/26 13:01:08;;;;;;;2.5;1.5;;;;;;;25.74;52.2168;937.6908;;;;
2021/06/26 13:03:33;;;;;;;2.9;1.9;;;;;;;26.2;52.73145;937.6752;;;;
2021/06/26 13:05:59;;;;;;;1.5;1.4;;;;;;;26.41;50.73145;937.6613;;;;
2021/06/26 13:08:24;;;;;;;5.3;3.1;;;;;;;26.49;51.87793;937.6697;;;;
2021/06/26 13:10:50;;;;;;;4.5;2.7;;;;;;;26.02;53.85742;937.7202;;;;
2021/06/26 13:13:16;;;;;;;2.2;1.9;;;;;;;25.52;53.67871;937.6978;;;;
2021/06/26 13:15:52;;;;;;;1.9;1.3;;;;;;;25.53;52.13281;937.68;;;;
2021/06/26 13:18:21;;;;;;;1.2;1.1;;;;;;;25.32;54.04395;937.6749;;;;
2021/06/26 13:20:46;;;;;;;1.6;1.5;;;;;;;25.54;53.25684;937.611;;;;
2021/06/26 13:23:13;;;;;;;1.8;1.4;;;;;;;25.7;54.5752;937.6846;;;;
2021/06/26 13:26:08;;;;;;;2.3;1.5;;;;;;;25.83;53.17188;937.675;;;;
2021/06/26 13:28:34;;;;;;;1.4;1.3;;;;;;;25.87;55.24609;937.6765;;;;
2021/06/26 13:30:59;;;;;;;1.5;1.4;;;;;;;25.58;54.32422;937.6983;;;;
2021/06/26 13:33:28;;;;;;;1.5;1.4;;;;;;;25.73;53.08984;937.7239;;;;
2021/06/26 13:35:53;;;;;;;3.1;1.8;;;;;;;25.49;52.09277;937.6902;;;;
2021/06/26 13:38:21;;;;;;;1.9;1.6;;;;;;;25.31;53.91309;937.6809;;;;
2021/06/26 13:40:50;;;;;;;1.7;1.4;;;;;;;25.34;55.09766;937.695;;;;
2021/06/26 13:43:11;;;;;;;1.7;1.6;;;;;;;25.28;54.22852;937.6727;;;;
2021/06/26 13:45:40;;;;;;;1.5;1.4;;;;;;;25.44;53.55078;937.6864;;;;
2021/06/26 13:48:09;;;;;;;1.2;1.1;;;;;;;25.74;54.75781;937.7355;;;;
2021/06/26 13:50:34;;;;;;;1.6;1.5;;;;;;;25.94;57.40723;937.805;;;;
2021/06/26 13:53:00;;;;;;;2.4;1.6;;;;;;;26.22;56.84082;937.8348;;;;
2021/06/26 13:55:25;;;;;;;1.6;1.5;;;;;;;26.37;55.37891;937.83;;;;
2021/06/26 13:57:53;;;;;;;1.6;1.4;;;;;;;26.17;54.45605;937.8139;;;;
2021/06/26 14:00:20;;;;;;;1.6;1.4;;;;;;;26.47;53.11719;937.7494;;;;
2021/06/26 14:02:44;;;;;;;1.6;1.5;;;;;;;26.59;54.00879;937.7772;;;;
2021/06/26 14:05:11;;;;;;;1.7;1.6;;;;;;;26.07;53.92285;937.7905;;;;
2021/06/26 14:07:37;;;;;;;1.4;1.3;;;;;;;25.67;54.87891;937.7129;;;;
2021/06/26 14:10:04;;;;;;;2.6;1.5;;;;;;;25.88;54.27734;937.7452;;;;
2021/06/26 14:12:29;;;;;;;1.3;1.2;;;;;;;25.91;53.13477;937.728;;;;
2021/06/26 14:14:55;;;;;;;2.9;1.7;;;;;;;25.59;54.89258;937.7148;;;;
2021/06/26 14:17:24;;;;;;;2.8;1.7;;;;;;;25.58;55.5293;937.7554;;;;
2021/06/26 14:19:49;;;;;;;3.8;1.4;;;;;;;25.33;54.86133;937.8045;;;;
2021/06/26 14:22:18;;;;;;;1.5;1.4;;;;;;;25.33;56.18359;937.8019;;;;
2021/06/26 14:25:12;;;;;;;1.9;1.5;;;;;;;25.31;55.9209;937.7698;;;;
2021/06/26 14:27:42;;;;;;;1.6;1.5;;;;;;;25.03;59.03613;937.698;;;;
2021/06/26 14:30:15;;;;;;;2.8;1.5;;;;;;;25.15;59.98535;937.6917;;;;
2021/06/26 14:32:39;;;;;;;2.1;1.8;;;;;;;25.36;57.93457;937.6819;;;;
2021/06/26 14:35:04;;;;;;;1.6;1.5;;;;;;;25.1;59.53027;937.7512;;;;
2021/06/26 14:37:30;;;;;;;2.6;1.6;;;;;;;25.39;59.86328;937.7888;;;;
2021/06/26 14:39:59;;;;;;;2.7;1.7;;;;;;;25.36;59.54102;937.7586;;;;
2021/06/26 14:42:24;;;;;;;1.7;1.6;;;;;;;25.27;58.54883;937.726;;;;
2021/06/26 14:44:53;;;;;;;3.7;1.8;;;;;;;25.3;57.10156;937.7327;;;;
2021/06/26 14:47:18;;;;;;;1.5;1.4;;;;;;;24.98;58.21582;937.7569;;;;
2021/06/26 14:49:45;;;;;;;2.7;1.7;;;;;;;25.04;57.38574;937.7809;;;;
2021/06/26 14:52:10;;;;;;;1.6;1.5;;;;;;;24.73;59.87109;937.7885;;;;
2021/06/26 14:54:39;;;;;;;1.7;1.6;;;;;;;24.6;58.38965;937.7505;;;;
2021/06/26 14:57:04;;;;;;;1.8;1.7;;;;;;;24.69;59.18066;937.7377;;;;
2021/06/26 14:59:31;;;;;;;2.7;1.9;;;;;;;23.85;61.89453;937.7383;;;;
2021/06/26 15:01:56;;;;;;;2.9;1.9;;;;;;;23.55;64.32129;937.7422;;;;
2021/06/26 15:04:23;;;;;;;1.8;1.7;;;;;;;23.41;63.32617;937.6872;;;;
2021/06/26 15:06:48;;;;;;;2.2;1.7;;;;;;;23.47;63.58203;937.7305;;;;
2021/06/26 15:09:13;;;;;;;2.3;2.1;;;;;;;23.28;65.23438;937.5847;;;;
2021/06/26 15:11:38;;;;;;;3.2;2.9;;;;;;;23.07;65.37988;937.6707;;;;
2021/06/26 15:14:03;;;;;;;2.3;2;;;;;;;22.8;65.08301;937.63;;;;
2021/06/26 15:16:33;;;;;;;3.3;2.1;;;;;;;22.47;65.08105;937.7145;;;;
2021/06/26 15:19:00;;;;;;;2.8;2.6;;;;;;;22.61;65.06641;937.6802;;;;
2021/06/26 15:21:25;;;;;;;1.9;1.8;;;;;;;23.02;65.88867;937.6733;;;;
2021/06/26 15:23:51;;;;;;;3.8;2.2;;;;;;;23.26;65.73828;937.6437;;;;
2021/06/26 15:26:16;;;;;;;6.2;2.8;;;;;;;22.84;67.09668;937.7525;;;;
2021/06/26 15:28:43;;;;;;;3.8;2.7;;;;;;;22.95;68.03906;937.7492;;;;
2021/06/26 15:31:09;;;;;;;3.4;2.5;;;;;;;23.03;66.87988;937.7696;;;;
2021/06/26 15:33:35;;;;;;;2.2;2;;;;;;;23.3;65.00293;937.7299;;;;
2021/06/26 15:36:00;;;;;;;2.4;2.2;;;;;;;23.31;65.12207;937.6711;;;;
2021/06/26 15:38:26;;;;;;;2.5;2;;;;;;;23.37;63.59082;937.7101;;;;
2021/06/26 15:40:52;;;;;;;2.8;2;;;;;;;23.32;62.12598;937.7267;;;;
2021/06/26 15:43:19;;;;;;;2.2;2;;;;;;;23.28;64.625;937.7202;;;;